sensor_id;sensor_type;location;lat;lon;timestamp;temperature;humidity
63960;DHT22;50136;51.374;0.096;2023-05-07T00:00:51;14.20;99.90
63960;DHT22;50136;51.374;0.096;2023-05-07T00:10:53;14.30;99.90
63960;DHT22;50136;51.374;0.096;2023-05-07T00:20:56;14.30;99.90
63960;DHT22;50136;51.374;0.096;2023-05-07T00:30:58;14.30;99.90
63960;DHT22;50136;51.374;0.096;2023-05-07T00:41:02;14.30;99.90
63960;DHT22;50136;51.374;0.096;2023-05-07T00:51:04;14.20;99.90
63960;DHT22;50136;51.374;0.096;2023-05-07T01:01:07;14.00;99.90
63960;DHT22;50136;51.374;0.096;2023-05-07T01:11:10;13.90;99.90
63960;DHT22;50136;51.374;0.096;2023-05-07T01:21:15;13.90;99.90
63960;DHT22;50136;51.374;0.096;2023-05-07T01:31:20;13.80;99.90
63960;DHT22;50136;51.374;0.096;2023-05-07T01:41:23;13.80;99.90
63960;DHT22;50136;51.374;0.096;2023-05-07T01:51:27;13.70;99.90
63960;DHT22;50136;51.374;0.096;2023-05-07T02:01:29;13.60;99.90
63960;DHT22;50136;51.374;0.096;2023-05-07T02:11:32;13.50;99.90
63960;DHT22;50136;51.374;0.096;2023-05-07T02:21:34;13.50;99.90
63960;DHT22;50136;51.374;0.096;2023-05-07T02:31:38;13.50;99.90
63960;DHT22;50136;51.374;0.096;2023-05-07T02:41:40;13.40;99.90
63960;DHT22;50136;51.374;0.096;2023-05-07T02:51:43;13.40;99.90
63960;DHT22;50136;51.374;0.096;2023-05-07T03:01:45;13.30;99.90
63960;DHT22;50136;51.374;0.096;2023-05-07T03:11:48;13.10;99.90
63960;DHT22;50136;51.374;0.096;2023-05-07T03:21:50;13.20;99.90
63960;DHT22;50136;51.374;0.096;2023-05-07T03:31:54;13.20;99.90
63960;DHT22;50136;51.374;0.096;2023-05-07T03:41:57;13.10;99.90
63960;DHT22;50136;51.374;0.096;2023-05-07T03:52:00;13.10;99.90
63960;DHT22;50136;51.374;0.096;2023-05-07T04:02:02;13.10;99.90
63960;DHT22;50136;51.374;0.096;2023-05-07T04:12:07;13.10;99.90
63960;DHT22;50136;51.374;0.096;2023-05-07T04:22:10;13.10;99.90
63960;DHT22;50136;51.374;0.096;2023-05-07T04:32:13;13.00;99.90
63960;DHT22;50136;51.374;0.096;2023-05-07T04:42:15;13.00;99.90
63960;DHT22;50136;51.374;0.096;2023-05-07T04:52:19;13.00;99.90
63960;DHT22;50136;51.374;0.096;2023-05-07T05:02:21;13.00;99.90
63960;DHT22;50136;51.374;0.096;2023-05-07T05:12:24;13.10;99.90
63960;DHT22;50136;51.374;0.096;2023-05-07T05:22:26;13.10;99.90
63960;DHT22;50136;51.374;0.096;2023-05-07T05:32:29;13.10;99.90
63960;DHT22;50136;51.374;0.096;2023-05-07T05:42:31;13.20;99.90
63960;DHT22;50136;51.374;0.096;2023-05-07T05:52:35;13.00;99.90
63960;DHT22;50136;51.374;0.096;2023-05-07T06:02:37;13.10;99.90
63960;DHT22;50136;51.374;0.096;2023-05-07T06:12:41;13.10;99.90
63960;DHT22;50136;51.374;0.096;2023-05-07T06:22:43;13.10;99.90
63960;DHT22;50136;51.374;0.096;2023-05-07T06:32:46;13.20;99.90
63960;DHT22;50136;51.374;0.096;2023-05-07T06:42:48;13.20;99.90
63960;DHT22;50136;51.374;0.096;2023-05-07T06:52:51;13.30;99.90
63960;DHT22;50136;51.374;0.096;2023-05-07T07:02:54;13.40;99.90
63960;DHT22;50136;51.374;0.096;2023-05-07T07:12:57;13.50;99.90
63960;DHT22;50136;51.374;0.096;2023-05-07T07:22:59;13.60;99.90
63960;DHT22;50136;51.374;0.096;2023-05-07T07:33:03;13.60;99.90
63960;DHT22;50136;51.374;0.096;2023-05-07T07:43:05;13.70;99.90
63960;DHT22;50136;51.374;0.096;2023-05-07T07:53:08;13.70;99.90
63960;DHT22;50136;51.374;0.096;2023-05-07T08:03:10;13.70;99.90
63960;DHT22;50136;51.374;0.096;2023-05-07T08:13:14;13.70;99.90
63960;DHT22;50136;51.374;0.096;2023-05-07T08:23:20;13.90;99.90
63960;DHT22;50136;51.374;0.096;2023-05-07T08:33:29;14.10;99.90
63960;DHT22;50136;51.374;0.096;2023-05-07T08:43:31;14.40;99.90
63960;DHT22;50136;51.374;0.096;2023-05-07T08:53:36;14.70;99.90
63960;DHT22;50136;51.374;0.096;2023-05-07T09:03:43;14.80;99.90
63960;DHT22;50136;51.374;0.096;2023-05-07T09:13:47;14.90;99.90
63960;DHT22;50136;51.374;0.096;2023-05-07T09:23:51;15.00;99.90
63960;DHT22;50136;51.374;0.096;2023-05-07T09:33:54;16.00;99.90
63960;DHT22;50136;51.374;0.096;2023-05-07T09:43:56;19.00;99.90
63960;DHT22;50136;51.374;0.096;2023-05-07T09:54:01;19.60;99.90
63960;DHT22;50136;51.374;0.096;2023-05-07T10:04:05;19.40;99.90
63960;DHT22;50136;51.374;0.096;2023-05-07T10:14:09;18.80;99.90
63960;DHT22;50136;51.374;0.096;2023-05-07T10:24:19;17.90;99.90
63960;DHT22;50136;51.374;0.096;2023-05-07T10:34:27;17.70;99.90
63960;DHT22;50136;51.374;0.096;2023-05-07T10:44:31;17.70;99.90
63960;DHT22;50136;51.374;0.096;2023-05-07T10:54:34;17.60;99.90
63960;DHT22;50136;51.374;0.096;2023-05-07T11:04:38;17.80;99.90
63960;DHT22;50136;51.374;0.096;2023-05-07T11:14:45;17.80;99.90
63960;DHT22;50136;51.374;0.096;2023-05-07T11:24:47;18.00;99.90
63960;DHT22;50136;51.374;0.096;2023-05-07T11:34:53;18.30;99.90
63960;DHT22;50136;51.374;0.096;2023-05-07T11:44:55;18.30;99.90
63960;DHT22;50136;51.374;0.096;2023-05-07T11:54:59;18.40;99.90
63960;DHT22;50136;51.374;0.096;2023-05-07T12:05:01;18.60;99.90
63960;DHT22;50136;51.374;0.096;2023-05-07T12:15:05;18.20;99.90
63960;DHT22;50136;51.374;0.096;2023-05-07T12:25:08;18.50;99.90
63960;DHT22;50136;51.374;0.096;2023-05-07T12:35:12;18.90;99.90
63960;DHT22;50136;51.374;0.096;2023-05-07T12:45:16;19.30;99.90
63960;DHT22;50136;51.374;0.096;2023-05-07T12:55:20;19.20;99.90
63960;DHT22;50136;51.374;0.096;2023-05-07T13:05:22;19.10;99.90
63960;DHT22;50136;51.374;0.096;2023-05-07T13:15:25;19.80;99.90
63960;DHT22;50136;51.374;0.096;2023-05-07T13:25:27;19.40;99.90
63960;DHT22;50136;51.374;0.096;2023-05-07T13:35:30;19.20;99.90
63960;DHT22;50136;51.374;0.096;2023-05-07T13:45:32;19.50;99.90
63960;DHT22;50136;51.374;0.096;2023-05-07T13:55:36;19.70;99.90
63960;DHT22;50136;51.374;0.096;2023-05-07T14:05:38;21.00;99.90
63960;DHT22;50136;51.374;0.096;2023-05-07T14:15:41;21.40;99.90
63960;DHT22;50136;51.374;0.096;2023-05-07T14:25:43;21.50;99.90
63960;DHT22;50136;51.374;0.096;2023-05-07T14:35:46;21.50;99.90
63960;DHT22;50136;51.374;0.096;2023-05-07T14:45:48;22.10;99.90
63960;DHT22;50136;51.374;0.096;2023-05-07T14:55:52;21.10;99.90
63960;DHT22;50136;51.374;0.096;2023-05-07T15:05:54;21.60;99.90
63960;DHT22;50136;51.374;0.096;2023-05-07T15:15:57;21.90;99.90
63960;DHT22;50136;51.374;0.096;2023-05-07T15:25:59;21.80;99.90
63960;DHT22;50136;51.374;0.096;2023-05-07T15:36:03;21.90;99.90
63960;DHT22;50136;51.374;0.096;2023-05-07T15:46:05;21.70;99.90
63960;DHT22;50136;51.374;0.096;2023-05-07T15:56:09;22.00;99.90
63960;DHT22;50136;51.374;0.096;2023-05-07T16:06:10;21.90;99.90
63960;DHT22;50136;51.374;0.096;2023-05-07T16:16:14;21.80;99.90
63960;DHT22;50136;51.374;0.096;2023-05-07T16:26:16;21.40;99.90
63960;DHT22;50136;51.374;0.096;2023-05-07T16:36:19;21.60;99.90
63960;DHT22;50136;51.374;0.096;2023-05-07T16:46:21;21.30;99.90
63960;DHT22;50136;51.374;0.096;2023-05-07T16:56:25;21.20;99.90
63960;DHT22;50136;51.374;0.096;2023-05-07T17:06:27;21.30;99.90
63960;DHT22;50136;51.374;0.096;2023-05-07T17:16:30;20.80;99.90
63960;DHT22;50136;51.374;0.096;2023-05-07T17:26:35;20.60;99.90
63960;DHT22;50136;51.374;0.096;2023-05-07T17:36:38;20.20;99.90
63960;DHT22;50136;51.374;0.096;2023-05-07T17:46:40;19.90;99.90
63960;DHT22;50136;51.374;0.096;2023-05-07T17:56:44;19.70;99.90
63960;DHT22;50136;51.374;0.096;2023-05-07T18:06:46;19.50;99.90
63960;DHT22;50136;51.374;0.096;2023-05-07T18:16:49;19.20;99.90
63960;DHT22;50136;51.374;0.096;2023-05-07T18:26:51;18.90;99.90
63960;DHT22;50136;51.374;0.096;2023-05-07T18:36:54;18.70;99.90
63960;DHT22;50136;51.374;0.096;2023-05-07T18:46:56;18.50;99.90
63960;DHT22;50136;51.374;0.096;2023-05-07T18:57:00;18.20;99.90
63960;DHT22;50136;51.374;0.096;2023-05-07T19:07:02;18.00;99.90
63960;DHT22;50136;51.374;0.096;2023-05-07T19:17:05;17.80;99.90
63960;DHT22;50136;51.374;0.096;2023-05-07T19:27:07;17.50;99.90
63960;DHT22;50136;51.374;0.096;2023-05-07T19:37:10;17.20;99.90
63960;DHT22;50136;51.374;0.096;2023-05-07T19:47:12;16.90;99.90
63960;DHT22;50136;51.374;0.096;2023-05-07T19:57:15;16.70;99.90
63960;DHT22;50136;51.374;0.096;2023-05-07T20:07:17;16.40;99.90
63960;DHT22;50136;51.374;0.096;2023-05-07T20:17:21;16.00;99.90
63960;DHT22;50136;51.374;0.096;2023-05-07T20:27:23;15.80;99.90
63960;DHT22;50136;51.374;0.096;2023-05-07T20:37:26;15.60;99.90
63960;DHT22;50136;51.374;0.096;2023-05-07T20:47:30;15.40;99.90
63960;DHT22;50136;51.374;0.096;2023-05-07T20:57:34;15.20;99.90
63960;DHT22;50136;51.374;0.096;2023-05-07T21:07:36;15.10;99.90
63960;DHT22;50136;51.374;0.096;2023-05-07T21:17:39;15.00;99.90
63960;DHT22;50136;51.374;0.096;2023-05-07T21:27:41;14.80;99.90
63960;DHT22;50136;51.374;0.096;2023-05-07T21:37:44;14.70;99.90
63960;DHT22;50136;51.374;0.096;2023-05-07T21:47:46;14.50;99.90
63960;DHT22;50136;51.374;0.096;2023-05-07T21:57:49;14.40;99.90
63960;DHT22;50136;51.374;0.096;2023-05-07T22:08:05;14.20;99.90
63960;DHT22;50136;51.374;0.096;2023-05-07T22:18:08;14.10;99.90
63960;DHT22;50136;51.374;0.096;2023-05-07T22:28:10;14.00;99.90
63960;DHT22;50136;51.374;0.096;2023-05-07T22:38:13;13.80;99.90
63960;DHT22;50136;51.374;0.096;2023-05-07T22:48:15;13.70;99.90
63960;DHT22;50136;51.374;0.096;2023-05-07T22:58:19;13.50;99.90
63960;DHT22;50136;51.374;0.096;2023-05-07T23:08:21;13.50;99.90
63960;DHT22;50136;51.374;0.096;2023-05-07T23:18:24;13.30;99.90
63960;DHT22;50136;51.374;0.096;2023-05-07T23:28:26;13.20;99.90
63960;DHT22;50136;51.374;0.096;2023-05-07T23:38:29;13.10;99.90
63960;DHT22;50136;51.374;0.096;2023-05-07T23:48:31;13.10;99.90
63960;DHT22;50136;51.374;0.096;2023-05-07T23:58:35;12.90;99.90
